Buckman, Minnesota
Current Conditions -  °F | °C
As of 2:58 PM on Thursday 27 Nov 2014 (Local Time) from KLXL Reporting Station
Clear Clear  
Wind Chill:   Ceiling: Unl
Heat Index:   Visibility: 10mi
Dew Point: -8°   Wind: 3mph
Humidity: 48%   Direction: 210°SSW
Pressure: 30.38"   Gusts: NA
Location:  45.9°N, 94.09°W
Report Text: KLXL 272058Z AUTO 21003KT 10SM CLR M13/M22 A3038 RMK AO2
Loading
Personal Weather Stations






























Interactive Weather Map New forecast layout! Learn more

10-Day Weather Forecast

Advertisements
Track Severe Weather on mobile